Time;durP1;ratioP1;P1;durP2;ratioP2;P2;SDS_P1;SDS_P2;PMS_P1;PMS_P2;Temp;Humidity;BMP_temperature;BMP_pressure;BME280_temperature;BME280_humidity;BME280_pressure;Samples;Min_cycle;Max_cycle;Signal;HPM_P1;HPM_P2
2022/06/25 00:00:28;;;;;;;;;;;13.50;99.90;;;;;;5072024;28;20007;-80
2022/06/25 00:02:53;;;;;;;;;;;13.40;99.90;;;;;;5072188;28;20316;-80
2022/06/25 00:05:28;;;;;;;;;;;13.40;99.90;;;;;;5071965;28;19972;-80
2022/06/25 00:07:56;;;;;;;;;;;13.40;99.90;;;;;;5073037;28;20414;-80
2022/06/25 00:10:22;;;;;;;;;;;13.40;99.90;;;;;;5072323;28;19937;-81
2022/06/25 00:12:48;;;;;;;;;;;13.40;99.90;;;;;;5072771;28;19950;-82
2022/06/25 00:15:14;;;;;;;;;;;13.30;99.90;;;;;;5072173;28;19943;-79
2022/06/25 00:17:40;;;;;;;;;;;13.30;99.90;;;;;;5054719;28;20262;-80
2022/06/25 00:20:06;;;;;;;;;;;13.30;99.90;;;;;;5072198;28;19904;-80
2022/06/25 00:22:31;;;;;;;;;;;13.20;99.90;;;;;;5072101;28;19909;-80
2022/06/25 00:24:57;;;;;;;;;;;13.20;99.90;;;;;;5054241;28;19908;-76
2022/06/25 00:27:23;;;;;;;;;;;13.20;99.90;;;;;;5072075;28;19911;-79
2022/06/25 00:29:48;;;;;;;;;;;13.10;99.90;;;;;;5072548;28;19908;-78
2022/06/25 00:32:14;;;;;;;;;;;13.10;99.90;;;;;;5071742;28;19959;-78
2022/06/25 00:34:39;;;;;;;;;;;13.10;99.90;;;;;;5072499;28;19911;-78
2022/06/25 00:37:06;;;;;;;;;;;13.00;99.90;;;;;;5071935;28;19983;-78
2022/06/25 00:39:31;;;;;;;;;;;12.90;99.90;;;;;;5072555;28;19908;-79
2022/06/25 00:41:57;;;;;;;;;;;12.80;99.90;;;;;;5054611;28;19904;-77
2022/06/25 00:44:23;;;;;;;;;;;12.90;99.90;;;;;;5072627;28;20007;-78
2022/06/25 00:46:48;;;;;;;;;;;12.80;99.90;;;;;;5072422;28;20370;-79
2022/06/25 00:49:14;;;;;;;;;;;12.80;99.90;;;;;;5071591;28;19953;-78
2022/06/25 00:51:41;;;;;;;;;;;12.70;99.90;;;;;;5072309;28;19905;-78
2022/06/25 00:54:09;;;;;;;;;;;12.70;99.90;;;;;;5071803;28;20358;-78
2022/06/25 00:56:38;;;;;;;;;;;12.70;99.90;;;;;;5071878;28;20348;-79
2022/06/25 00:59:04;;;;;;;;;;;12.60;99.90;;;;;;5072368;28;19912;-79
2022/06/25 01:01:32;;;;;;;;;;;12.60;99.90;;;;;;5076385;28;19905;-79
2022/06/25 01:03:57;;;;;;;;;;;12.50;99.90;;;;;;5076085;28;19915;-79
2022/06/25 01:06:23;;;;;;;;;;;12.50;99.90;;;;;;5075591;28;19908;-79
2022/06/25 01:08:49;;;;;;;;;;;12.50;99.90;;;;;;5076110;28;19954;-80
2022/06/25 01:11:15;;;;;;;;;;;12.50;99.90;;;;;;5075442;28;19908;-79
2022/06/25 01:13:40;;;;;;;;;;;12.60;99.90;;;;;;5076160;28;20259;-78
2022/06/25 01:16:06;;;;;;;;;;;12.60;99.90;;;;;;5075139;28;19904;-79
2022/06/25 01:18:31;;;;;;;;;;;12.50;99.90;;;;;;5076103;28;19904;-79
2022/06/25 01:20:59;;;;;;;;;;;12.50;99.90;;;;;;5075855;28;19912;-79
2022/06/25 01:23:24;;;;;;;;;;;12.50;99.90;;;;;;5075160;28;19909;-80
2022/06/25 01:25:50;;;;;;;;;;;12.60;99.90;;;;;;5075363;28;19919;-79
2022/06/25 01:28:15;;;;;;;;;;;12.60;99.90;;;;;;5057005;28;19904;-80
2022/06/25 01:30:41;;;;;;;;;;;12.50;99.90;;;;;;5075596;28;19904;-80
2022/06/25 01:33:07;;;;;;;;;;;12.50;99.90;;;;;;5074928;28;19916;-79
2022/06/25 01:35:33;;;;;;;;;;;12.40;99.90;;;;;;5075620;28;19951;-79
2022/06/25 01:37:58;;;;;;;;;;;12.30;99.90;;;;;;5075408;28;19911;-79
2022/06/25 01:40:24;;;;;;;;;;;12.30;99.90;;;;;;5075249;28;19908;-81
2022/06/25 01:42:58;;;;;;;;;;;12.20;99.90;;;;;;5075462;28;20410;-81
2022/06/25 01:45:24;;;;;;;;;;;12.10;99.90;;;;;;5074999;28;19915;-81
2022/06/25 01:47:50;;;;;;;;;;;12.10;99.90;;;;;;5075019;28;19995;-83
2022/06/25 01:50:16;;;;;;;;;;;12.10;99.90;;;;;;5074541;28;19904;-81
2022/06/25 01:52:46;;;;;;;;;;;12.10;99.90;;;;;;5057065;28;20319;-81
2022/06/25 01:55:12;;;;;;;;;;;12.10;99.90;;;;;;5074866;28;19912;-80
2022/06/25 01:57:38;;;;;;;;;;;12.10;99.90;;;;;;5075052;28;19904;-81
2022/06/25 02:00:07;;;;;;;;;;;12.00;99.90;;;;;;5074745;28;20309;-77
2022/06/25 02:02:33;;;;;;;;;;;12.00;99.90;;;;;;5074668;28;19908;-82
2022/06/25 02:04:58;;;;;;;;;;;12.00;99.90;;;;;;5074943;28;19938;-81
2022/06/25 02:07:24;;;;;;;;;;;12.00;99.90;;;;;;5074361;28;19984;-82
2022/06/25 02:09:50;;;;;;;;;;;12.00;99.90;;;;;;5074690;28;19904;-81
2022/06/25 02:12:15;;;;;;;;;;;12.00;99.90;;;;;;5073779;28;19904;-80
2022/06/25 02:14:41;;;;;;;;;;;12.00;99.90;;;;;;5074601;28;19904;-81
2022/06/25 02:17:06;;;;;;;;;;;12.00;99.90;;;;;;5074268;28;19912;-80
2022/06/25 02:19:32;;;;;;;;;;;12.00;99.90;;;;;;5074810;28;19904;-81
2022/06/25 02:21:58;;;;;;;;;;;12.00;99.90;;;;;;5074687;28;20350;-81
2022/06/25 02:24:23;;;;;;;;;;;12.00;99.90;;;;;;5074281;28;19920;-80
2022/06/25 02:26:49;;;;;;;;;;;12.00;99.90;;;;;;5074980;28;19908;-80
2022/06/25 02:29:14;;;;;;;;;;;12.00;99.90;;;;;;5074196;28;19904;-80
2022/06/25 02:31:40;;;;;;;;;;;12.00;99.90;;;;;;5074711;28;19912;-80
2022/06/25 02:34:05;;;;;;;;;;;12.00;99.90;;;;;;5074229;28;19939;-77
2022/06/25 02:36:31;;;;;;;;;;;11.90;99.90;;;;;;5074128;28;19911;-80
2022/06/25 02:38:56;;;;;;;;;;;11.90;99.90;;;;;;5074589;28;20370;-81
2022/06/25 02:41:22;;;;;;;;;;;11.90;99.90;;;;;;5073846;28;19905;-81
2022/06/25 02:43:48;;;;;;;;;;;11.90;99.90;;;;;;5074224;28;19974;-81
2022/06/25 02:46:13;;;;;;;;;;;11.90;99.90;;;;;;5073897;28;20003;-80
2022/06/25 02:48:39;;;;;;;;;;;11.80;99.90;;;;;;5074296;28;19965;-83
2022/06/25 02:51:04;;;;;;;;;;;11.80;99.90;;;;;;5074409;28;19905;-81
2022/06/25 02:53:30;;;;;;;;;;;11.80;99.90;;;;;;5073782;28;20335;-82
2022/06/25 02:58:55;;;;;;;;;;;11.80;99.90;;;;;;5074053;28;19930;-81
2022/06/25 03:01:21;;;;;;;;;;;11.70;99.90;;;;;;5073581;28;20339;-80
2022/06/25 03:03:47;;;;;;;;;;;11.70;99.90;;;;;;5055881;28;19908;-80
2022/06/25 03:06:12;;;;;;;;;;;11.70;99.90;;;;;;5073262;28;20265;-79
2022/06/25 03:08:38;;;;;;;;;;;11.70;99.90;;;;;;5056423;28;19904;-80
2022/06/25 03:11:04;;;;;;;;;;;11.70;99.90;;;;;;5073834;28;20391;-80
2022/06/25 03:13:31;;;;;;;;;;;11.70;99.90;;;;;;5072979;28;20267;-80
2022/06/25 03:15:57;;;;;;;;;;;11.70;99.90;;;;;;5073750;28;19904;-80
2022/06/25 03:18:23;;;;;;;;;;;11.80;99.90;;;;;;5073016;28;19954;-80
2022/06/25 03:20:50;;;;;;;;;;;11.70;99.90;;;;;;5073840;28;19999;-81
2022/06/25 03:23:15;;;;;;;;;;;11.80;99.90;;;;;;5072293;28;20369;-80
2022/06/25 03:25:41;;;;;;;;;;;11.70;99.90;;;;;;5073640;28;19908;-81
2022/06/25 03:28:07;;;;;;;;;;;11.70;99.90;;;;;;5073509;28;19908;-81
2022/06/25 03:30:33;;;;;;;;;;;11.70;99.90;;;;;;5073013;28;20262;-80
2022/06/25 03:32:58;;;;;;;;;;;11.60;99.90;;;;;;5073008;28;19921;-79
2022/06/25 03:35:24;;;;;;;;;;;11.70;99.90;;;;;;5072759;28;19908;-79
2022/06/25 03:37:49;;;;;;;;;;;11.60;99.90;;;;;;5073400;28;20002;-80
2022/06/25 03:40:16;;;;;;;;;;;11.60;99.90;;;;;;5072707;28;19915;-79
2022/06/25 03:42:42;;;;;;;;;;;11.60;99.90;;;;;;5073075;28;19908;-80
2022/06/25 03:45:08;;;;;;;;;;;11.60;99.90;;;;;;5073238;28;19915;-80
2022/06/25 03:47:34;;;;;;;;;;;11.60;99.90;;;;;;5072703;28;19904;-80
2022/06/25 03:49:59;;;;;;;;;;;11.50;99.90;;;;;;5055178;28;19991;-80
2022/06/25 03:52:25;;;;;;;;;;;11.50;99.90;;;;;;5072487;28;19908;-81
2022/06/25 03:54:51;;;;;;;;;;;11.50;99.90;;;;;;5073059;28;19904;-81
2022/06/25 03:57:17;;;;;;;;;;;11.50;99.90;;;;;;5072651;28;19987;-79
2022/06/25 03:59:42;;;;;;;;;;;11.60;99.90;;;;;;5072506;28;19948;-79
2022/06/25 04:02:08;;;;;;;;;;;11.50;99.90;;;;;;5072877;28;20354;-80
2022/06/25 04:04:33;;;;;;;;;;;11.50;99.90;;;;;;5072198;28;20045;-80
2022/06/25 04:06:59;;;;;;;;;;;11.50;99.90;;;;;;5072938;28;20374;-80
2022/06/25 04:09:24;;;;;;;;;;;11.50;99.90;;;;;;5072244;28;19974;-79
2022/06/25 04:11:50;;;;;;;;;;;11.50;99.90;;;;;;5054682;28;19995;-79
2022/06/25 04:14:15;;;;;;;;;;;11.50;99.90;;;;;;5072445;28;19971;-79
2022/06/25 04:16:41;;;;;;;;;;;11.50;99.90;;;;;;5072481;28;20316;-81
2022/06/25 04:19:07;;;;;;;;;;;11.50;99.90;;;;;;5072635;28;19911;-80
2022/06/25 04:21:32;;;;;;;;;;;11.50;99.90;;;;;;5053929;28;19900;-81
2022/06/25 04:23:58;;;;;;;;;;;11.60;99.90;;;;;;5072613;28;19908;-80
2022/06/25 04:26:23;;;;;;;;;;;11.60;99.90;;;;;;5054135;28;19908;-80
2022/06/25 04:29:04;;;;;;;;;;;11.50;99.90;;;;;;5054470;28;19915;-80
2022/06/25 04:31:31;;;;;;;;;;;11.60;99.90;;;;;;5071951;28;19904;-80
2022/06/25 04:33:57;;;;;;;;;;;11.60;99.90;;;;;;5071865;28;19916;-80
2022/06/25 04:36:22;;;;;;;;;;;11.60;99.90;;;;;;5072126;28;19905;-80
2022/06/25 04:38:49;;;;;;;;;;;11.70;99.90;;;;;;5072344;28;19915;-79
2022/06/25 04:41:14;;;;;;;;;;;11.70;99.90;;;;;;5072109;28;19949;-77
2022/06/25 04:43:40;;;;;;;;;;;11.70;99.90;;;;;;5072352;28;20006;-80
2022/06/25 04:46:05;;;;;;;;;;;11.70;99.90;;;;;;5072127;28;19908;-80
2022/06/25 04:48:31;;;;;;;;;;;11.70;99.90;;;;;;5071804;28;19998;-79
2022/06/25 04:50:57;;;;;;;;;;;11.70;99.90;;;;;;5072340;28;19904;-80
2022/06/25 04:53:22;;;;;;;;;;;11.80;99.90;;;;;;5071842;28;19905;-79
2022/06/25 04:55:48;;;;;;;;;;;11.90;99.90;;;;;;5072285;28;19905;-79
2022/06/25 04:58:13;;;;;;;;;;;11.90;99.90;;;;;;5054221;28;19905;-77
2022/06/25 05:00:40;;;;;;;;;;;12.00;99.90;;;;;;5071803;28;19915;-80
2022/06/25 05:03:05;;;;;;;;;;;12.00;99.90;;;;;;5072157;28;19938;-79
2022/06/25 05:05:31;;;;;;;;;;;12.10;99.90;;;;;;5071595;28;20312;-80
2022/06/25 05:07:56;;;;;;;;;;;12.20;99.90;;;;;;5072274;28;19905;-79
2022/06/25 05:10:22;;;;;;;;;;;12.20;99.90;;;;;;5071603;28;19904;-80
2022/06/25 05:15:33;;;;;;;;;;;12.30;99.90;;;;;;5071416;28;19911;-79
2022/06/25 05:17:59;;;;;;;;;;;12.30;99.90;;;;;;5072056;28;19908;-80
2022/06/25 05:20:24;;;;;;;;;;;12.40;99.90;;;;;;5071585;28;20079;-79
2022/06/25 05:22:50;;;;;;;;;;;12.30;99.90;;;;;;5072214;28;19970;-79
2022/06/25 05:25:15;;;;;;;;;;;12.40;99.90;;;;;;5071819;28;20342;-77
2022/06/25 05:27:41;;;;;;;;;;;12.40;99.90;;;;;;5071697;28;20375;-79
2022/06/25 05:30:07;;;;;;;;;;;12.30;99.90;;;;;;5071909;28;19911;-79
2022/06/25 05:32:33;;;;;;;;;;;12.40;99.90;;;;;;5071198;28;19904;-78
2022/06/25 05:34:59;;;;;;;;;;;12.40;99.90;;;;;;5053906;28;19909;-78
2022/06/25 05:37:24;;;;;;;;;;;12.50;99.90;;;;;;5071324;28;19904;-79
2022/06/25 05:39:51;;;;;;;;;;;12.50;99.90;;;;;;5072269;28;20346;-79
2022/06/25 05:42:17;;;;;;;;;;;12.50;99.90;;;;;;5071648;28;19905;-77
2022/06/25 05:44:43;;;;;;;;;;;12.60;99.90;;;;;;5071669;28;20311;-78
2022/06/25 05:47:09;;;;;;;;;;;12.60;99.90;;;;;;5073961;28;19911;-79
2022/06/25 05:49:35;;;;;;;;;;;12.80;99.90;;;;;;5074873;28;19908;-78
2022/06/25 05:52:00;;;;;;;;;;;12.90;99.90;;;;;;5075351;28;20393;-79
2022/06/25 05:54:26;;;;;;;;;;;12.90;99.90;;;;;;5074729;28;19905;-78
2022/06/25 05:56:52;;;;;;;;;;;13.00;99.90;;;;;;5074896;28;19904;-78
2022/06/25 05:59:17;;;;;;;;;;;13.10;99.90;;;;;;5074848;28;19979;-76
2022/06/25 06:01:43;;;;;;;;;;;13.20;99.90;;;;;;5074456;28;19904;-78
2022/06/25 06:04:08;;;;;;;;;;;13.40;99.90;;;;;;5074866;28;20285;-78
2022/06/25 06:06:34;;;;;;;;;;;13.70;99.90;;;;;;5074368;28;19915;-77
2022/06/25 06:09:00;;;;;;;;;;;13.80;99.90;;;;;;5075348;28;19904;-78
2022/06/25 06:11:25;;;;;;;;;;;14.00;99.90;;;;;;5074544;28;19935;-77
2022/06/25 06:13:51;;;;;;;;;;;14.10;99.90;;;;;;5074780;28;19922;-78
2022/06/25 06:16:16;;;;;;;;;;;14.20;99.90;;;;;;5074875;28;19912;-78
2022/06/25 06:18:42;;;;;;;;;;;14.30;99.90;;;;;;5074337;28;20346;-78
2022/06/25 06:21:08;;;;;;;;;;;14.30;99.90;;;;;;5074593;28;19958;-78
2022/06/25 06:23:33;;;;;;;;;;;14.30;99.90;;;;;;5074241;28;20003;-78
2022/06/25 06:25:59;;;;;;;;;;;14.40;99.90;;;;;;5074795;28;19912;-78
2022/06/25 06:28:24;;;;;;;;;;;14.50;99.90;;;;;;5074160;28;19960;-80
2022/06/25 06:30:50;;;;;;;;;;;14.60;99.90;;;;;;5074886;28;20258;-79
2022/06/25 06:33:15;;;;;;;;;;;14.70;99.90;;;;;;5074482;28;19916;-78
2022/06/25 06:35:41;;;;;;;;;;;14.80;99.90;;;;;;5073654;28;19904;-78
2022/06/25 06:38:07;;;;;;;;;;;14.80;99.90;;;;;;5074423;28;19905;-79
2022/06/25 06:40:32;;;;;;;;;;;15.00;99.90;;;;;;5073876;28;19947;-78
2022/06/25 06:42:58;;;;;;;;;;;15.00;99.90;;;;;;5074297;28;19958;-79
2022/06/25 06:45:23;;;;;;;;;;;15.00;99.90;;;;;;5073708;28;20411;-77
2022/06/25 06:47:49;;;;;;;;;;;15.10;99.90;;;;;;5074762;28;19915;-78
2022/06/25 06:50:14;;;;;;;;;;;15.20;99.90;;;;;;5073984;28;19904;-78
2022/06/25 06:52:40;;;;;;;;;;;15.20;99.90;;;;;;5073595;28;19991;-78
2022/06/25 06:55:06;;;;;;;;;;;15.20;99.90;;;;;;5056083;28;19992;-78
2022/06/25 06:57:32;;;;;;;;;;;15.30;99.90;;;;;;5073109;28;19912;-78
2022/06/25 07:00:00;;;;;;;;;;;15.40;99.90;;;;;;5073993;28;19911;-80
2022/06/25 07:02:26;;;;;;;;;;;15.30;99.90;;;;;;5072955;28;19909;-78
2022/06/25 07:04:52;;;;;;;;;;;15.30;99.90;;;;;;5073945;28;19954;-79
2022/06/25 07:07:18;;;;;;;;;;;15.20;99.90;;;;;;5073805;28;19905;-79
2022/06/25 07:09:44;;;;;;;;;;;15.20;99.90;;;;;;5073240;28;19904;-79
2022/06/25 07:12:09;;;;;;;;;;;15.20;99.90;;;;;;5055937;28;20270;-79
2022/06/25 07:14:35;;;;;;;;;;;15.30;99.90;;;;;;5055205;28;19930;-78
2022/06/25 07:17:00;;;;;;;;;;;15.30;99.90;;;;;;5073464;28;19998;-79
2022/06/25 07:19:26;;;;;;;;;;;15.30;99.90;;;;;;5072793;28;19911;-78
2022/06/25 07:21:54;;;;;;;;;;;15.40;99.90;;;;;;5073927;28;20389;-79
2022/06/25 07:24:20;;;;;;;;;;;15.50;99.90;;;;;;5073426;28;19912;-78
2022/06/25 07:26:46;;;;;;;;;;;15.60;99.90;;;;;;5073241;28;20380;-79
2022/06/25 07:29:11;;;;;;;;;;;15.70;99.90;;;;;;5073422;28;20006;-78
2022/06/25 07:31:37;;;;;;;;;;;15.50;99.90;;;;;;5072603;28;20323;-78
2022/06/25 07:34:03;;;;;;;;;;;15.60;99.90;;;;;;5073730;28;19938;-80
2022/06/25 07:36:28;;;;;;;;;;;15.60;99.90;;;;;;5072436;28;20333;-78
2022/06/25 07:38:54;;;;;;;;;;;15.60;99.90;;;;;;5073185;28;19957;-79
2022/06/25 07:41:20;;;;;;;;;;;15.70;99.90;;;;;;5072967;28;20405;-79
2022/06/25 07:43:45;;;;;;;;;;;15.70;99.90;;;;;;5072042;28;19993;-79
2022/06/25 07:46:11;;;;;;;;;;;15.70;99.90;;;;;;5055168;28;19908;-79
2022/06/25 07:48:37;;;;;;;;;;;15.80;99.90;;;;;;5072443;28;19912;-77
2022/06/25 07:53:47;;;;;;;;;;;15.60;99.90;;;;;;5072486;28;19988;-79
2022/06/25 07:56:12;;;;;;;;;;;15.70;99.90;;;;;;5072955;28;19940;-78
2022/06/25 07:58:38;;;;;;;;;;;15.80;99.90;;;;;;5072452;28;20255;-76
2022/06/25 08:01:03;;;;;;;;;;;15.90;99.90;;;;;;5072722;28;19912;-77
2022/06/25 08:03:29;;;;;;;;;;;15.90;99.90;;;;;;5072199;28;19970;-77
2022/06/25 08:05:55;;;;;;;;;;;16.00;99.90;;;;;;5072901;28;19908;-77
2022/06/25 08:08:21;;;;;;;;;;;16.10;99.90;;;;;;5054659;28;19911;-77
2022/06/25 08:10:46;;;;;;;;;;;16.00;99.90;;;;;;5071719;28;19900;-78
2022/06/25 08:13:12;;;;;;;;;;;16.20;99.90;;;;;;5072722;28;19927;-78
2022/06/25 08:15:37;;;;;;;;;;;16.20;99.90;;;;;;5053841;28;20298;-78
2022/06/25 08:18:03;;;;;;;;;;;16.40;99.90;;;;;;5072457;28;19911;-78
2022/06/25 08:20:29;;;;;;;;;;;16.50;99.90;;;;;;5072299;28;20353;-76
2022/06/25 08:22:54;;;;;;;;;;;16.50;99.90;;;;;;5072508;28;19912;-78
2022/06/25 08:25:20;;;;;;;;;;;16.50;99.90;;;;;;5072862;28;19909;-77
2022/06/25 08:27:47;;;;;;;;;;;16.50;99.90;;;;;;5071660;28;19905;-77
2022/06/25 08:30:12;;;;;;;;;;;16.50;99.90;;;;;;5072582;28;19916;-78
2022/06/25 08:32:38;;;;;;;;;;;16.50;99.90;;;;;;5072163;28;19908;-78
2022/06/25 08:35:04;;;;;;;;;;;16.60;99.90;;;;;;5072567;28;19912;-78
2022/06/25 08:37:29;;;;;;;;;;;16.60;99.90;;;;;;5053977;28;19908;-76
2022/06/25 08:39:55;;;;;;;;;;;16.60;99.90;;;;;;5072040;28;19912;-77
2022/06/25 08:42:20;;;;;;;;;;;16.70;99.90;;;;;;5072413;28;19904;-77
2022/06/25 08:44:46;;;;;;;;;;;16.70;99.90;;;;;;5071714;28;19915;-78
2022/06/25 08:47:12;;;;;;;;;;;16.80;99.90;;;;;;5072047;28;19923;-78
2022/06/25 08:49:38;;;;;;;;;;;16.80;99.90;;;;;;5071844;28;19904;-78
2022/06/25 08:52:06;;;;;;;;;;;16.70;99.90;;;;;;5054341;28;19904;-78
2022/06/25 08:54:33;;;;;;;;;;;16.70;99.90;;;;;;5071651;28;19935;-77
2022/06/25 08:56:59;;;;;;;;;;;16.80;99.90;;;;;;5071296;28;20355;-78
2022/06/25 08:59:25;;;;;;;;;;;17.00;99.90;;;;;;5071641;28;19905;-78
2022/06/25 09:01:50;;;;;;;;;;;17.10;99.90;;;;;;5071704;28;19900;-78
2022/06/25 09:04:17;;;;;;;;;;;17.20;99.90;;;;;;5071828;28;19961;-78
2022/06/25 09:06:43;;;;;;;;;;;17.40;99.90;;;;;;5071548;28;19983;-78
2022/06/25 09:09:12;;;;;;;;;;;17.50;99.90;;;;;;5072223;28;19904;-77
2022/06/25 09:12:08;;;;;;;;;;;17.60;99.90;;;;;;5071711;28;19947;-77
2022/06/25 09:14:35;;;;;;;;;;;17.40;99.90;;;;;;5050743;28;19913;-77
2022/06/25 09:17:06;;;;;;;;;;;17.50;99.90;;;;;;5072069;28;19904;-77
2022/06/25 09:19:33;;;;;;;;;;;17.50;99.90;;;;;;5071666;28;20273;-77
2022/06/25 09:22:00;;;;;;;;;;;17.50;99.90;;;;;;5074102;28;20002;-77
2022/06/25 09:24:46;;;;;;;;;;;17.60;99.90;;;;;;5075782;28;19915;-77
2022/06/25 09:27:12;;;;;;;;;;;17.70;99.90;;;;;;5058168;28;19914;-78
2022/06/25 09:29:42;;;;;;;;;;;17.60;99.90;;;;;;5075197;28;20361;-77
2022/06/25 09:32:08;;;;;;;;;;;17.70;99.90;;;;;;5075618;28;19927;-78
2022/06/25 09:34:34;;;;;;;;;;;17.70;99.90;;;;;;5075102;28;19916;-77
2022/06/25 09:37:20;;;;;;;;;;;17.90;99.90;;;;;;5075409;28;19912;-77
2022/06/25 09:39:46;;;;;;;;;;;18.00;99.90;;;;;;5075258;28;19958;-77
2022/06/25 09:42:19;;;;;;;;;;;18.10;99.90;;;;;;5075606;28;19952;-77
2022/06/25 09:44:45;;;;;;;;;;;18.20;99.90;;;;;;5075045;28;19908;-77
2022/06/25 09:47:11;;;;;;;;;;;18.20;99.90;;;;;;5075646;28;19912;-77
2022/06/25 09:49:37;;;;;;;;;;;18.10;99.90;;;;;;5074798;28;19944;-77
2022/06/25 09:52:03;;;;;;;;;;;18.10;99.90;;;;;;5075150;28;19989;-78
2022/06/25 09:54:29;;;;;;;;;;;18.20;99.90;;;;;;5075286;28;19987;-78
2022/06/25 09:56:54;;;;;;;;;;;18.30;99.90;;;;;;5074703;28;20310;-78
2022/06/25 09:59:21;;;;;;;;;;;18.40;99.90;;;;;;5075162;28;19904;-77
2022/06/25 10:01:47;;;;;;;;;;;18.30;99.90;;;;;;5074616;28;20065;-77
2022/06/25 10:04:13;;;;;;;;;;;18.40;99.90;;;;;;5074774;28;20011;-78
2022/06/25 10:06:39;;;;;;;;;;;18.30;99.90;;;;;;5074676;28;19915;-76
2022/06/25 10:09:06;;;;;;;;;;;18.30;99.90;;;;;;5075263;28;19911;-77
2022/06/25 10:11:32;;;;;;;;;;;18.30;99.90;;;;;;5075101;28;19911;-77
2022/06/25 10:13:58;;;;;;;;;;;18.20;99.90;;;;;;5074237;28;19966;-78
2022/06/25 10:16:24;;;;;;;;;;;18.10;99.90;;;;;;5074635;28;20354;-77
2022/06/25 10:18:51;;;;;;;;;;;18.00;99.90;;;;;;5056399;28;19904;-78
2022/06/25 10:21:17;;;;;;;;;;;17.90;99.90;;;;;;5074790;28;20418;-78
2022/06/25 10:23:43;;;;;;;;;;;17.90;99.90;;;;;;5074380;28;19908;-78
2022/06/25 10:26:09;;;;;;;;;;;17.80;99.90;;;;;;5075072;28;19908;-79
2022/06/25 10:28:35;;;;;;;;;;;18.00;99.90;;;;;;5074569;28;19995;-76
2022/06/25 10:31:04;;;;;;;;;;;18.00;99.90;;;;;;5074410;28;20378;-78
2022/06/25 10:33:35;;;;;;;;;;;18.20;99.90;;;;;;5074289;28;19978;-78
2022/06/25 10:36:04;;;;;;;;;;;18.40;99.90;;;;;;5074638;28;19954;-77
2022/06/25 10:38:30;;;;;;;;;;;18.60;99.90;;;;;;5074392;28;19911;-78
2022/06/25 10:42:58;;;;;;;;;;;18.80;99.90;;;;;;5073759;28;19904;-77
2022/06/25 10:43:49;;;;;;;;;;;18.80;99.90;;;;;;5073437;28;19919;-78
2022/06/25 10:46:19;;;;;;;;;;;18.90;99.90;;;;;;5074437;28;20408;-78
2022/06/25 10:49:06;;;;;;;;;;;19.10;99.90;;;;;;5055706;28;20385;-78
2022/06/25 10:51:50;;;;;;;;;;;19.20;99.90;;;;;;5074692;28;19967;-79
2022/06/25 10:54:19;;;;;;;;;;;19.20;99.90;;;;;;5074142;28;20283;-78
2022/06/25 10:56:46;;;;;;;;;;;19.30;99.90;;;;;;5073630;28;19911;-79
2022/06/25 10:59:31;;;;;;;;;;;19.40;99.90;;;;;;5074163;28;19905;-79
2022/06/25 11:01:57;;;;;;;;;;;19.50;99.90;;;;;;5073399;28;20605;-78
2022/06/25 11:04:25;;;;;;;;;;;19.50;99.90;;;;;;5074028;28;19947;-78
2022/06/25 11:06:50;;;;;;;;;;;19.50;99.90;;;;;;5073077;28;19912;-78
2022/06/25 11:09:16;;;;;;;;;;;19.50;99.90;;;;;;5073841;28;19905;-78
2022/06/25 11:11:46;;;;;;;;;;;19.50;99.90;;;;;;5073082;28;19911;-77
2022/06/25 11:14:13;;;;;;;;;;;19.50;99.90;;;;;;5073864;28;20373;-77
2022/06/25 11:16:38;;;;;;;;;;;19.40;99.90;;;;;;5073111;28;20373;-77
2022/06/25 11:19:04;;;;;;;;;;;19.40;99.90;;;;;;5055670;28;19905;-79
2022/06/25 11:21:31;;;;;;;;;;;19.30;99.90;;;;;;5073463;28;20259;-79
2022/06/25 11:24:15;;;;;;;;;;;19.30;99.90;;;;;;5072781;28;20006;-79
2022/06/25 11:29:33;;;;;;;;;;;19.30;99.90;;;;;;5073629;28;19962;-79
2022/06/25 11:31:59;;;;;;;;;;;19.20;99.90;;;;;;5072955;28;19931;-79
2022/06/25 11:34:25;;;;;;;;;;;19.30;99.90;;;;;;5072949;28;20344;-79
2022/06/25 11:37:00;;;;;;;;;;;19.20;99.90;;;;;;5072594;28;20007;-79
2022/06/25 11:39:26;;;;;;;;;;;19.30;99.90;;;;;;5073012;28;19904;-78
2022/06/25 11:41:52;;;;;;;;;;;19.40;99.90;;;;;;5054705;28;19904;-78
2022/06/25 11:44:18;;;;;;;;;;;19.60;99.90;;;;;;5072138;28;19920;-77
2022/06/25 11:46:44;;;;;;;;;;;19.70;99.90;;;;;;5072583;28;19965;-77
2022/06/25 11:49:10;;;;;;;;;;;19.70;99.90;;;;;;5072917;28;19908;-79
2022/06/25 11:51:42;;;;;;;;;;;19.70;99.90;;;;;;5073184;28;19904;-77
2022/06/25 11:54:08;;;;;;;;;;;19.60;99.90;;;;;;5073004;28;19904;-78
2022/06/25 11:56:34;;;;;;;;;;;19.60;99.90;;;;;;5072897;28;19904;-78
2022/06/25 11:58:59;;;;;;;;;;;19.40;99.90;;;;;;5072413;28;20406;-78
2022/06/25 12:01:29;;;;;;;;;;;19.30;99.90;;;;;;5072750;28;20347;-78
2022/06/25 12:03:55;;;;;;;;;;;19.30;99.90;;;;;;5072255;28;19909;-77
2022/06/25 12:06:21;;;;;;;;;;;19.10;99.90;;;;;;5073053;28;19930;-78
2022/06/25 12:08:48;;;;;;;;;;;19.10;99.90;;;;;;5072042;28;19904;-78
2022/06/25 12:11:13;;;;;;;;;;;19.10;99.90;;;;;;5072677;28;19904;-78
2022/06/25 12:13:39;;;;;;;;;;;19.10;99.90;;;;;;5073301;28;20253;-78
2022/06/25 12:16:04;;;;;;;;;;;19.10;99.90;;;;;;5072265;28;19908;-78
2022/06/25 12:18:40;;;;;;;;;;;19.10;99.90;;;;;;5072230;28;19904;-78
2022/06/25 12:21:06;;;;;;;;;;;19.30;99.90;;;;;;5071967;28;20319;-78
2022/06/25 12:23:51;;;;;;;;;;;19.30;99.90;;;;;;5072347;28;19915;-79
2022/06/25 12:26:26;;;;;;;;;;;19.30;99.90;;;;;;5072391;28;19998;-78
2022/06/25 12:28:52;;;;;;;;;;;19.20;99.90;;;;;;5071846;28;20370;-77
2022/06/25 12:31:17;;;;;;;;;;;19.10;99.90;;;;;;5072713;28;19904;-77
2022/06/25 12:33:50;;;;;;;;;;;19.10;99.90;;;;;;5071946;28;20298;-76
2022/06/25 12:36:19;;;;;;;;;;;19.00;99.90;;;;;;5072617;28;19915;-77
2022/06/25 12:38:45;;;;;;;;;;;19.10;99.90;;;;;;5071919;28;19904;-76
2022/06/25 12:41:11;;;;;;;;;;;19.20;99.90;;;;;;5072331;28;19904;-78
2022/06/25 12:43:44;;;;;;;;;;;19.30;99.90;;;;;;5072722;28;20353;-78
2022/06/25 12:46:09;;;;;;;;;;;19.30;99.90;;;;;;5072196;28;19912;-77
2022/06/25 12:48:35;;;;;;;;;;;19.40;99.90;;;;;;5072478;28;19957;-77
2022/06/25 12:51:10;;;;;;;;;;;19.30;99.90;;;;;;5071191;28;19912;-76
2022/06/25 12:53:36;;;;;;;;;;;19.40;99.90;;;;;;5072244;28;19998;-78
2022/06/25 12:56:02;;;;;;;;;;;19.50;99.90;;;;;;5074105;28;20286;-77
2022/06/25 12:58:38;;;;;;;;;;;19.60;99.90;;;;;;5076618;28;19912;-77
2022/06/25 13:01:32;;;;;;;;;;;19.70;99.90;;;;;;5075858;28;19909;-77
2022/06/25 13:03:57;;;;;;;;;;;19.70;99.90;;;;;;5071754;28;19915;-77
2022/06/25 13:06:23;;;;;;;;;;;19.70;99.90;;;;;;5076239;28;19908;-76
2022/06/25 13:08:49;;;;;;;;;;;19.80;99.90;;;;;;5075276;28;20293;-77
2022/06/25 13:11:18;;;;;;;;;;;19.80;99.90;;;;;;5075863;28;19908;-77
2022/06/25 13:13:44;;;;;;;;;;;19.70;99.90;;;;;;5075815;28;19908;-77
2022/06/25 13:16:10;;;;;;;;;;;19.70;99.90;;;;;;5075740;28;19969;-77
2022/06/25 13:18:35;;;;;;;;;;;19.60;99.90;;;;;;5075985;28;19908;-76
2022/06/25 13:21:01;;;;;;;;;;;19.50;99.90;;;;;;5075127;28;19908;-76
2022/06/25 13:23:26;;;;;;;;;;;19.30;99.90;;;;;;5075802;28;19908;-76
2022/06/25 13:25:52;;;;;;;;;;;19.30;99.90;;;;;;5075093;28;19916;-76
2022/06/25 13:28:18;;;;;;;;;;;19.20;99.90;;;;;;5075892;28;19904;-76
2022/06/25 13:30:43;;;;;;;;;;;19.20;99.90;;;;;;5075908;28;19908;-76
2022/06/25 13:33:09;;;;;;;;;;;18.90;99.90;;;;;;5075051;28;19940;-77
2022/06/25 13:35:34;;;;;;;;;;;18.80;99.90;;;;;;5075688;28;19910;-76
2022/06/25 13:38:00;;;;;;;;;;;18.60;99.90;;;;;;5074888;28;20013;-75
2022/06/25 13:40:26;;;;;;;;;;;18.50;99.90;;;;;;5075938;28;19904;-76
2022/06/25 13:42:52;;;;;;;;;;;18.50;99.90;;;;;;5074861;28;19931;-76
2022/06/25 13:45:18;;;;;;;;;;;18.50;99.90;;;;;;5075254;28;20374;-78
2022/06/25 13:47:43;;;;;;;;;;;18.50;99.90;;;;;;5075276;28;20327;-77
2022/06/25 13:50:09;;;;;;;;;;;18.60;99.90;;;;;;5074700;28;20430;-77
2022/06/25 13:52:34;;;;;;;;;;;18.70;99.90;;;;;;5075311;28;19955;-76
2022/06/25 13:55:00;;;;;;;;;;;18.80;99.90;;;;;;5056546;28;19928;-76
2022/06/25 13:57:26;;;;;;;;;;;18.90;99.90;;;;;;5075041;28;19922;-76
2022/06/25 13:59:51;;;;;;;;;;;18.80;99.90;;;;;;5074712;28;19904;-76
2022/06/25 14:02:17;;;;;;;;;;;18.60;99.90;;;;;;5075122;28;19927;-76
2022/06/25 14:04:43;;;;;;;;;;;18.70;99.90;;;;;;5075204;28;19916;-76
2022/06/25 14:07:08;;;;;;;;;;;18.80;99.90;;;;;;5074040;28;19977;-77
2022/06/25 14:09:34;;;;;;;;;;;18.90;99.90;;;;;;5074721;28;19911;-76
2022/06/25 14:11:59;;;;;;;;;;;19.20;99.90;;;;;;5074251;28;19909;-76
2022/06/25 14:14:26;;;;;;;;;;;19.20;99.90;;;;;;5075251;28;19911;-76
2022/06/25 14:16:52;;;;;;;;;;;19.20;99.90;;;;;;5074398;28;19987;-76
2022/06/25 14:19:18;;;;;;;;;;;19.20;99.90;;;;;;5075273;28;19965;-77
2022/06/25 14:21:44;;;;;;;;;;;19.30;99.90;;;;;;5074678;28;19908;-76
2022/06/25 14:24:10;;;;;;;;;;;19.30;99.90;;;;;;5073730;28;19908;-76